createdAt,value
2023-04-22T00:02:03.237Z,6.10
2023-04-22T00:04:39.682Z,6.00
2023-04-22T00:07:13.997Z,5.50
2023-04-22T00:09:49.475Z,4.20
2023-04-22T00:12:23.908Z,4.30
2023-04-22T00:15:00.209Z,4.90
2023-04-22T00:17:33.605Z,4.30
2023-04-22T00:20:11.890Z,5.70
2023-04-22T00:22:46.748Z,5.40
2023-04-22T00:25:21.714Z,4.30
2023-04-22T00:27:56.999Z,4.30
2023-04-22T00:30:42.234Z,4.40
2023-04-22T00:33:18.412Z,3.70
2023-04-22T00:35:53.495Z,5.40
2023-04-22T00:38:29.356Z,2.40
2023-04-22T00:41:04.792Z,4.40
2023-04-22T00:43:39.571Z,4.90
2023-04-22T00:46:16.143Z,6.50
2023-04-22T00:48:52.906Z,8.40
2023-04-22T00:51:29.230Z,5.50
2023-04-22T00:54:06.021Z,4.90
2023-04-22T00:56:42.142Z,7.10
2023-04-22T00:59:17.104Z,4.50
2023-04-22T01:02:22.290Z,7.00
2023-04-22T01:05:17.071Z,4.70
2023-04-22T01:08:12.433Z,2.60
2023-04-22T01:11:01.915Z,3.40
2023-04-22T01:13:42.745Z,3.00
2023-04-22T01:16:42.741Z,10.90
2023-04-22T01:22:02.695Z,6.10
2023-04-22T01:24:41.390Z,10.00
2023-04-22T01:27:42.592Z,13.80
2023-04-22T01:30:29.128Z,7.70
2023-04-22T01:34:15.437Z,7.30
2023-04-22T01:36:17.668Z,6.60
2023-04-22T01:39:03.267Z,9.40
2023-04-22T01:41:49.306Z,12.40
2023-04-22T01:44:25.369Z,12.10
2023-04-22T01:46:59.708Z,6.40
2023-04-22T01:49:38.131Z,8.90
2023-04-22T01:52:23.695Z,6.80
2023-04-22T01:55:05.112Z,10.30
2023-04-22T01:57:46.347Z,7.70
2023-04-22T02:00:42.934Z,7.80
2023-04-22T02:03:30.854Z,7.50
2023-04-22T02:06:11.436Z,9.10
2023-04-22T02:08:58.986Z,7.40
2023-04-22T02:11:35.223Z,7.80
2023-04-22T02:17:32.248Z,5.30
2023-04-22T02:20:43.149Z,4.50
2023-04-22T02:23:21.126Z,5.20
2023-04-22T02:26:17.576Z,7.30
2023-04-22T02:30:14.313Z,3.60
2023-04-22T02:31:57.125Z,3.40
2023-04-22T02:34:35.569Z,4.40
2023-04-22T02:38:16.314Z,6.40
2023-04-22T02:40:28.449Z,5.10
2023-04-22T02:44:21.821Z,5.90
2023-04-22T02:49:25.445Z,4.80
2023-04-22T02:52:06.241Z,5.20
2023-04-22T02:55:04.544Z,6.20
2023-04-22T02:57:41.521Z,6.30
2023-04-22T03:00:24.525Z,5.00
2023-04-22T03:03:14.415Z,7.20
2023-04-22T03:05:51.247Z,7.90
2023-04-22T03:08:29.578Z,5.10
2023-04-22T03:11:37.706Z,5.40
2023-04-22T03:14:03.953Z,7.00
2023-04-22T03:16:41.948Z,7.20
2023-04-22T03:19:18.165Z,7.00
2023-04-22T03:21:41.957Z,5.80
2023-04-22T03:23:56.269Z,7.90
2023-04-22T03:26:11.875Z,4.90
2023-04-22T03:28:46.417Z,5.20
2023-04-22T03:31:09.561Z,4.40
2023-04-22T03:33:44.235Z,4.30
2023-04-22T03:36:18.012Z,4.50
2023-04-22T03:38:57.322Z,5.20
2023-04-22T03:41:32.017Z,4.50
2023-04-22T03:44:10.829Z,4.80
2023-04-22T03:46:45.228Z,5.50
2023-04-22T03:49:26.286Z,5.90
2023-04-22T03:51:52.928Z,6.40
2023-04-22T03:54:19.187Z,6.50
2023-04-22T03:56:54.921Z,5.10
2023-04-22T03:59:13.528Z,8.60
2023-04-22T04:01:29.246Z,4.40
2023-04-22T04:04:05.367Z,2.60
2023-04-22T04:06:25.264Z,3.50
2023-04-22T04:09:19.340Z,2.90
2023-04-22T04:11:54.498Z,2.80
2023-04-22T04:14:29.010Z,2.20
2023-04-22T04:16:52.941Z,3.00
2023-04-22T04:19:34.296Z,2.50
2023-04-22T04:21:49.995Z,2.80
2023-04-22T04:24:14.579Z,2.90
2023-04-22T04:26:43.676Z,2.30
2023-04-22T04:29:22.268Z,3.10
2023-04-22T04:31:57.114Z,2.40
2023-04-22T04:34:11.992Z,3.00
2023-04-22T04:36:27.385Z,3.00
2023-04-22T04:39:01.586Z,5.80
2023-04-22T04:41:31.360Z,6.40
2023-04-22T04:43:54.944Z,16.80
2023-04-22T04:46:30.777Z,23.40
2023-04-22T04:49:06.973Z,28.90
2023-04-22T04:51:29.206Z,21.70
2023-04-22T04:53:48.640Z,13.70
2023-04-22T04:56:15.102Z,13.70
2023-04-22T04:58:38.733Z,15.60
2023-04-22T05:01:15.572Z,15.90
2023-04-22T05:03:34.954Z,14.90
2023-04-22T05:06:00.906Z,7.80
2023-04-22T05:08:35.947Z,6.60
2023-04-22T05:11:10.913Z,5.80
2023-04-22T05:13:44.998Z,6.00
2023-04-22T05:16:20.748Z,6.00
2023-04-22T05:18:37.369Z,5.50
2023-04-22T05:21:00.937Z,4.50
2023-04-22T05:23:15.974Z,4.60
2023-04-22T05:25:31.369Z,2.50
2023-04-22T05:30:16.840Z,3.20
2023-04-22T05:32:41.380Z,2.80
2023-04-22T05:34:55.920Z,3.20
2023-04-22T05:37:16.169Z,3.50
2023-04-22T05:39:35.579Z,4.00
2023-04-22T05:41:52.229Z,3.60
2023-04-22T05:44:16.968Z,4.30
2023-04-22T05:46:51.269Z,7.30
2023-04-22T05:49:11.090Z,6.20
2023-04-22T05:51:42.887Z,5.90
2023-04-22T05:54:02.032Z,5.30
2023-04-22T05:56:16.982Z,4.20
2023-04-22T05:58:40.857Z,3.80
2023-04-22T06:00:59.853Z,4.50
2023-04-22T06:03:54.533Z,5.70
2023-04-22T06:06:31.426Z,6.30
2023-04-22T06:09:05.894Z,4.80
2023-04-22T06:11:40.855Z,3.80
2023-04-22T06:14:15.586Z,4.50
2023-04-22T06:16:40.025Z,4.90
2023-04-22T06:19:13.767Z,5.30
2023-04-22T06:21:48.946Z,3.60
2023-04-22T06:24:23.036Z,3.20
2023-04-22T06:26:59.519Z,3.30
2023-04-22T06:29:34.824Z,3.60
2023-04-22T06:32:09.322Z,3.30
2023-04-22T06:34:44.707Z,2.90
2023-04-22T06:37:20.406Z,5.80
2023-04-22T06:39:54.525Z,4.00
2023-04-22T06:42:29.819Z,5.60
2023-04-22T06:45:03.840Z,8.70
2023-04-22T06:47:36.921Z,8.40
2023-04-22T06:50:14.875Z,6.40
2023-04-22T06:52:57.524Z,6.30
2023-04-22T06:55:30.776Z,6.40
2023-04-22T06:58:04.652Z,5.10
2023-04-22T07:00:39.627Z,6.10
2023-04-22T07:03:17.804Z,5.30
2023-04-22T07:05:54.116Z,5.70
2023-04-22T07:08:27.744Z,3.80
2023-04-22T07:11:04.792Z,5.10
2023-04-22T07:13:38.822Z,5.20
2023-04-22T07:16:14.978Z,3.20
2023-04-22T07:18:49.440Z,4.10
2023-04-22T07:21:23.820Z,3.20
2023-04-22T07:23:59.291Z,3.30
2023-04-22T07:26:35.728Z,3.00
2023-04-22T07:29:10.159Z,2.70
2023-04-22T07:31:45.132Z,2.70
2023-04-22T07:34:25.152Z,2.70
2023-04-22T07:37:00.132Z,2.30
2023-04-22T07:39:39.636Z,2.40
2023-04-22T07:42:14.060Z,2.00
2023-04-22T07:44:48.871Z,1.90
2023-04-22T07:47:24.077Z,2.60
2023-04-22T07:50:00.495Z,2.40
2023-04-22T07:52:35.342Z,2.00
2023-04-22T07:55:11.392Z,2.10
2023-04-22T07:57:48.324Z,1.70
2023-04-22T08:00:24.912Z,1.40
2023-04-22T08:03:00.872Z,2.60
2023-04-22T08:05:35.677Z,1.20
2023-04-22T08:08:11.017Z,1.50
2023-04-22T08:10:46.167Z,3.40
2023-04-22T08:13:20.808Z,1.40
2023-04-22T08:15:56.453Z,2.10
2023-04-22T08:18:32.241Z,1.30
2023-04-22T08:21:08.098Z,1.70
2023-04-22T08:23:42.621Z,2.50
2023-04-22T08:26:20.179Z,1.80
2023-04-22T08:28:55.671Z,1.90
2023-04-22T08:31:31.277Z,1.30
2023-04-22T08:34:05.712Z,1.20
2023-04-22T08:36:42.282Z,2.20
2023-04-22T08:39:17.529Z,2.30
2023-04-22T08:41:54.196Z,1.80
2023-04-22T08:44:30.205Z,1.90
2023-04-22T08:47:07.099Z,1.80
2023-04-22T08:49:43.261Z,1.70
2023-04-22T08:52:19.066Z,1.40
2023-04-22T08:54:53.831Z,1.10
2023-04-22T08:57:28.503Z,1.60
2023-04-22T09:00:05.356Z,1.20
2023-04-22T09:02:40.802Z,1.80
2023-04-22T09:05:17.959Z,1.50
2023-04-22T09:07:52.391Z,2.10
2023-04-22T09:10:26.395Z,2.00
2023-04-22T09:14:05.036Z,1.60
2023-04-22T09:15:59.757Z,1.10
2023-04-22T09:18:43.569Z,1.80
2023-04-22T09:21:19.536Z,1.20
2023-04-22T09:23:57.723Z,1.50
2023-04-22T09:26:33.569Z,1.20
2023-04-22T09:29:10.738Z,1.20
2023-04-22T09:31:52.414Z,1.10
2023-04-22T09:34:30.980Z,1.50
2023-04-22T09:37:08.136Z,1.40
2023-04-22T09:39:45.408Z,1.40
2023-04-22T09:42:21.266Z,1.40
2023-04-22T09:44:59.930Z,1.40
2023-04-22T09:47:43.902Z,1.30
2023-04-22T09:50:21.086Z,1.50
2023-04-22T09:53:05.502Z,1.70
2023-04-22T09:55:42.719Z,1.30
2023-04-22T09:58:18.705Z,1.20
2023-04-22T10:00:58.179Z,1.10
2023-04-22T10:04:39.744Z,1.10
2023-04-22T10:06:33.188Z,1.10
2023-04-22T10:08:57.422Z,1.00
2023-04-22T10:11:31.586Z,1.40
2023-04-22T10:14:08.001Z,1.00
2023-04-22T10:16:46.923Z,1.90
2023-04-22T10:19:27.075Z,1.20
2023-04-22T10:22:05.331Z,0.90
2023-04-22T10:24:43.845Z,1.50
2023-04-22T10:27:24.490Z,1.30
2023-04-22T10:29:59.886Z,0.80
2023-04-22T10:32:35.408Z,0.90
2023-04-22T10:35:30.075Z,1.00
2023-04-22T10:38:11.353Z,1.00
2023-04-22T10:41:08.824Z,0.70
2023-04-22T10:43:52.722Z,1.10
2023-04-22T10:47:01.156Z,0.70
2023-04-22T10:50:12.483Z,1.10
2023-04-22T10:52:47.681Z,0.90
2023-04-22T10:55:22.715Z,0.80
2023-04-22T10:57:58.305Z,0.70
2023-04-22T11:03:33.143Z,0.60
2023-04-22T11:06:28.653Z,0.90
2023-04-22T11:09:18.046Z,0.60
2023-04-22T11:11:54.382Z,0.60
2023-04-22T11:14:28.476Z,1.60
2023-04-22T11:17:03.637Z,0.70
2023-04-22T11:19:38.107Z,0.90
2023-04-22T11:22:14.807Z,0.60
2023-04-22T11:25:02.476Z,0.70
2023-04-22T11:27:36.897Z,0.60
2023-04-22T11:30:14.997Z,0.70
2023-04-22T11:32:51.048Z,0.90
2023-04-22T11:35:28.569Z,0.80
2023-04-22T11:38:05.304Z,0.60
2023-04-22T11:40:42.802Z,0.80
2023-04-22T11:43:20.950Z,0.70
2023-04-22T11:45:59.423Z,0.50
2023-04-22T11:48:33.781Z,0.60
2023-04-22T11:51:24.926Z,0.70
2023-04-22T11:54:02.293Z,0.60
2023-04-22T11:56:45.466Z,0.90
2023-04-22T11:59:19.836Z,0.80
2023-04-22T12:01:55.511Z,0.70
2023-04-22T12:04:32.331Z,0.60
2023-04-22T12:07:08.595Z,0.50
2023-04-22T12:09:43.909Z,0.60
2023-04-22T12:12:18.716Z,1.00
2023-04-22T12:14:55.393Z,0.70
2023-04-22T12:17:32.512Z,0.80
2023-04-22T12:20:08.563Z,0.50
2023-04-22T12:22:44.641Z,0.60
2023-04-22T12:25:25.839Z,0.50
2023-04-22T12:28:01.768Z,0.90
2023-04-22T12:30:37.249Z,0.60
2023-04-22T12:33:11.566Z,1.30
2023-04-22T12:35:48.301Z,1.80
2023-04-22T12:38:23.598Z,1.40
2023-04-22T12:41:00.504Z,1.90
2023-04-22T12:43:38.929Z,4.70
2023-04-22T12:46:14.485Z,4.20
2023-04-22T12:48:49.833Z,3.00
2023-04-22T12:51:24.008Z,2.60
2023-04-22T12:53:59.560Z,2.50
2023-04-22T12:56:35.446Z,2.00
2023-04-22T12:59:12.447Z,1.70
2023-04-22T13:01:47.540Z,0.70
2023-04-22T13:04:22.101Z,0.70
2023-04-22T13:06:59.174Z,0.60
2023-04-22T13:09:33.477Z,0.70
2023-04-22T13:12:07.985Z,0.70
2023-04-22T13:14:42.928Z,0.80
2023-04-22T13:17:18.845Z,0.80
2023-04-22T13:19:54.141Z,0.60
2023-04-22T13:22:30.532Z,0.50
2023-04-22T13:25:05.677Z,0.70
2023-04-22T13:27:41.499Z,0.70
2023-04-22T13:30:18.893Z,0.40
2023-04-22T13:32:53.322Z,0.60
2023-04-22T13:35:28.622Z,0.60
2023-04-22T13:38:03.281Z,0.80
2023-04-22T13:40:39.728Z,0.70
2023-04-22T13:43:15.574Z,0.60
2023-04-22T13:45:50.609Z,0.60
2023-04-22T13:48:26.595Z,0.50
2023-04-22T13:51:02.276Z,0.50
2023-04-22T13:53:36.848Z,0.50
2023-04-22T13:56:13.925Z,0.40
2023-04-22T13:58:51.496Z,0.50
2023-04-22T14:01:26.518Z,0.50
2023-04-22T14:04:01.150Z,0.90
2023-04-22T14:06:36.288Z,0.70
2023-04-22T14:09:11.010Z,1.50
2023-04-22T14:11:47.647Z,1.30
2023-04-22T14:14:23.127Z,0.70
2023-04-22T14:19:46.496Z,0.70
2023-04-22T14:22:21.637Z,0.90
2023-04-22T14:24:56.986Z,1.10
2023-04-22T14:27:31.077Z,1.80
2023-04-22T14:30:06.274Z,0.60
2023-04-22T14:32:41.234Z,0.90
2023-04-22T14:35:18.220Z,1.20
2023-04-22T14:37:52.936Z,1.10
2023-04-22T14:40:29.451Z,1.10
2023-04-22T14:43:06.029Z,0.70
2023-04-22T14:45:41.550Z,0.80
2023-04-22T14:48:15.866Z,0.70
2023-04-22T14:50:52.410Z,1.00
2023-04-22T14:53:27.397Z,0.70
2023-04-22T14:56:04.027Z,1.30
2023-04-22T14:58:39.195Z,0.80
2023-04-22T15:01:14.060Z,0.80
2023-04-22T15:03:49.985Z,1.40
2023-04-22T15:06:28.839Z,1.30
2023-04-22T15:09:03.848Z,1.80
2023-04-22T15:11:39.366Z,1.30
2023-04-22T15:14:16.687Z,3.00
2023-04-22T15:16:53.923Z,2.00
2023-04-22T15:19:29.435Z,1.60
2023-04-22T15:22:04.843Z,1.10
2023-04-22T15:24:39.782Z,1.70
2023-04-22T15:27:15.266Z,1.30
2023-04-22T15:30:01.254Z,1.40
2023-04-22T15:32:40.409Z,1.40
2023-04-22T15:35:17.331Z,1.80
2023-04-22T15:37:58.931Z,1.20
2023-04-22T15:40:34.154Z,10.70
2023-04-22T15:43:10.233Z,16.40
2023-04-22T15:45:45.282Z,10.20
2023-04-22T15:48:42.473Z,5.70
2023-04-22T15:51:18.954Z,4.70
2023-04-22T15:54:13.138Z,5.80
2023-04-22T15:56:52.263Z,4.90
2023-04-22T15:59:27.511Z,3.80
2023-04-22T16:02:02.142Z,4.40
2023-04-22T16:04:37.631Z,4.80
2023-04-22T16:07:13.575Z,13.10
2023-04-22T16:09:48.810Z,7.60
2023-04-22T16:12:24.521Z,3.30
2023-04-22T16:15:02.062Z,2.60
2023-04-22T16:17:37.218Z,4.20
2023-04-22T16:20:14.028Z,6.10
2023-04-22T16:22:51.650Z,5.20
2023-04-22T16:25:29.459Z,4.00
2023-04-22T16:28:04.228Z,3.40
2023-04-22T16:30:40.198Z,2.40
2023-04-22T16:33:14.850Z,4.50
2023-04-22T16:35:51.144Z,4.80
2023-04-22T16:38:25.352Z,7.40
2023-04-22T16:41:00.728Z,3.70
2023-04-22T16:43:36.245Z,4.10
2023-04-22T16:46:25.598Z,5.20
2023-04-22T16:49:02.451Z,5.80
2023-04-22T16:51:37.639Z,7.30
2023-04-22T16:54:13.357Z,2.10
2023-04-22T16:56:47.127Z,2.30
2023-04-22T16:59:21.892Z,1.90
2023-04-22T17:01:58.729Z,3.40
2023-04-22T17:04:33.796Z,3.80
2023-04-22T17:07:08.817Z,4.00
2023-04-22T17:09:43.769Z,2.90
2023-04-22T17:12:20.646Z,4.70
2023-04-22T17:14:54.790Z,3.40
2023-04-22T17:17:29.016Z,3.60
2023-04-22T17:20:07.595Z,4.20
2023-04-22T17:22:42.728Z,3.20
2023-04-22T17:25:20.069Z,2.50
2023-04-22T17:30:44.422Z,2.60
2023-04-22T17:33:18.633Z,1.80
2023-04-22T17:35:53.977Z,2.60
2023-04-22T17:38:30.885Z,1.30
2023-04-22T17:41:06.497Z,4.00
2023-04-22T17:43:41.627Z,1.60
2023-04-22T17:46:17.145Z,2.60
2023-04-22T17:48:52.502Z,2.00
2023-04-22T17:51:27.739Z,1.20
2023-04-22T17:54:02.849Z,1.80
2023-04-22T17:56:37.301Z,2.00
2023-04-22T17:59:13.820Z,3.20
2023-04-22T18:01:49.179Z,2.10
2023-04-22T18:04:24.999Z,2.20
2023-04-22T18:07:01.301Z,3.10
2023-04-22T18:09:36.068Z,1.80
2023-04-22T18:12:12.280Z,1.70
2023-04-22T18:14:48.908Z,1.30
2023-04-22T18:17:23.719Z,2.40
2023-04-22T18:20:14.010Z,2.60
2023-04-22T18:22:53.257Z,2.90
2023-04-22T18:25:28.608Z,3.20
2023-04-22T18:28:03.179Z,2.90
2023-04-22T18:30:40.426Z,3.10
2023-04-22T18:33:14.628Z,2.30
2023-04-22T18:35:48.980Z,1.70
2023-04-22T18:38:23.988Z,2.90
2023-04-22T18:40:58.436Z,2.20
2023-04-22T18:43:33.499Z,2.30
2023-04-22T18:46:09.346Z,2.50
2023-04-22T18:48:46.621Z,2.60
2023-04-22T18:51:21.415Z,2.80
2023-04-22T18:53:57.112Z,1.00
2023-04-22T18:56:35.254Z,1.50
2023-04-22T18:59:09.051Z,2.10
2023-04-22T19:01:44.535Z,1.60
2023-04-22T19:04:19.062Z,1.80
2023-04-22T19:06:53.314Z,2.90
2023-04-22T19:09:28.715Z,3.80
2023-04-22T19:12:04.655Z,2.70
2023-04-22T19:14:41.391Z,1.80
2023-04-22T19:17:15.389Z,1.10
2023-04-22T19:19:49.176Z,1.40
2023-04-22T19:23:16.108Z,1.50
2023-04-22T19:25:33.455Z,1.90
2023-04-22T19:28:11.834Z,2.40
2023-04-22T19:31:25.980Z,2.50
2023-04-22T19:34:00.631Z,2.20
2023-04-22T19:36:37.762Z,1.50
2023-04-22T19:39:13.488Z,1.50
2023-04-22T19:42:01.696Z,2.00
2023-04-22T19:44:31.354Z,3.50
2023-04-22T19:47:18.517Z,3.30
2023-04-22T19:50:08.524Z,2.40
2023-04-22T19:52:51.857Z,1.20
2023-04-22T19:55:42.261Z,1.60
2023-04-22T19:58:22.942Z,3.30
2023-04-22T20:01:02.375Z,3.10
2023-04-22T20:03:39.797Z,2.80
2023-04-22T20:06:23.842Z,3.90
2023-04-22T20:09:06.618Z,3.00
2023-04-22T20:12:03.076Z,2.70
2023-04-22T20:14:59.001Z,2.50
2023-04-22T20:18:18.696Z,2.60
2023-04-22T20:20:58.917Z,3.40
2023-04-22T20:23:54.455Z,4.10
2023-04-22T20:26:39.452Z,3.10
2023-04-22T20:29:49.513Z,3.40
2023-04-22T20:32:46.444Z,2.40
2023-04-22T20:35:26.731Z,2.10
2023-04-22T20:38:25.990Z,2.30
2023-04-22T20:41:12.109Z,2.90
2023-04-22T20:43:56.951Z,2.00
2023-04-22T20:46:31.675Z,1.90
2023-04-22T20:49:06.103Z,3.50
2023-04-22T20:51:44.777Z,2.60
2023-04-22T20:54:29.094Z,2.30
2023-04-22T20:57:06.470Z,3.80
2023-04-22T20:59:40.378Z,3.20
2023-04-22T21:02:15.898Z,1.80
2023-04-22T21:04:51.412Z,1.90
2023-04-22T21:07:27.941Z,1.40
2023-04-22T21:10:03.900Z,2.20
2023-04-22T21:12:43.243Z,2.80
2023-04-22T21:15:22.255Z,2.40
2023-04-22T21:17:58.620Z,3.40
2023-04-22T21:20:35.568Z,1.10
2023-04-22T21:23:13.545Z,1.50
2023-04-22T21:25:49.896Z,1.20
2023-04-22T21:28:27.522Z,1.80
2023-04-22T21:31:03.722Z,1.50
2023-04-22T21:33:38.608Z,2.10
2023-04-22T21:36:14.002Z,1.40
2023-04-22T21:38:47.673Z,1.60
2023-04-22T21:41:11.854Z,1.80
2023-04-22T21:43:46.000Z,1.60
2023-04-22T21:46:23.274Z,1.40
2023-04-22T21:48:58.482Z,1.40
2023-04-22T21:51:32.356Z,1.30
2023-04-22T21:54:08.542Z,1.40
2023-04-22T21:56:45.053Z,1.50
2023-04-22T21:59:19.657Z,1.50
2023-04-22T22:01:55.033Z,2.10
2023-04-22T22:04:29.588Z,1.70
2023-04-22T22:07:04.185Z,3.00
2023-04-22T22:09:40.529Z,2.00
2023-04-22T22:12:17.005Z,4.60
2023-04-22T22:14:41.560Z,3.50
2023-04-22T22:17:21.010Z,1.40
2023-04-22T22:20:00.417Z,1.40
2023-04-22T22:22:29.826Z,1.10
2023-04-22T22:25:04.744Z,1.60
2023-04-22T22:27:36.177Z,1.10
2023-04-22T22:30:26.365Z,1.40
2023-04-22T22:33:02.372Z,1.50
2023-04-22T22:35:36.134Z,1.30
2023-04-22T22:38:10.504Z,1.00
2023-04-22T22:40:46.676Z,1.10
2023-04-22T22:43:34.202Z,1.50
2023-04-22T22:46:11.246Z,1.40
2023-04-22T22:48:48.404Z,1.60
2023-04-22T22:51:23.937Z,1.60
2023-04-22T22:54:01.177Z,1.30
2023-04-22T22:56:37.147Z,1.60
2023-04-22T22:59:11.730Z,1.60
2023-04-22T23:02:35.477Z,1.20
2023-04-22T23:04:47.486Z,0.70
2023-04-22T23:07:22.875Z,0.50
2023-04-22T23:09:45.364Z,0.90
2023-04-22T23:12:20.604Z,0.80
2023-04-22T23:14:54.613Z,1.10
2023-04-22T23:17:30.506Z,0.90
2023-04-22T23:20:08.288Z,0.70
2023-04-22T23:22:33.397Z,1.10
2023-04-22T23:25:09.748Z,0.70
2023-04-22T23:27:45.483Z,0.60
2023-04-22T23:30:22.161Z,1.10
2023-04-22T23:33:00.465Z,0.90
2023-04-22T23:35:37.136Z,1.60
2023-04-22T23:38:13.749Z,0.90
2023-04-22T23:40:47.951Z,0.90
2023-04-22T23:43:23.654Z,2.20
2023-04-22T23:46:00.969Z,1.80
2023-04-22T23:48:35.175Z,1.10
2023-04-22T23:51:10.165Z,1.20
2023-04-22T23:53:45.390Z,1.30
2023-04-22T23:56:24.167Z,1.40
2023-04-22T23:59:02.106Z,1.10
